Time;durP1;ratioP1;P1;durP2;ratioP2;P2;SDS_P1;SDS_P2;PMS_P1;PMS_P2;Temp;Humidity;BMP_temperature;BMP_pressure;BME280_temperature;BME280_humidity;BME280_pressure;Samples;Min_cycle;Max_cycle;Signal;HPM_P1;HPM_P2
2022/12/18 00:00:41;;;;;;;42.70;24.63;;;;;;;-8.00;96.95;101607.28;5102521;28;20244;-59
2022/12/18 00:03:09;;;;;;;40.25;24.48;;;;;;;-8.01;96.87;101605.53;5103461;28;20636;-59
2022/12/18 00:05:35;;;;;;;47.15;25.77;;;;;;;-8.09;96.82;101616.72;5102173;28;20244;-60
2022/12/18 00:08:04;;;;;;;40.42;26.15;;;;;;;-8.21;96.72;101615.78;5103876;28;20215;-59
2022/12/18 00:10:30;;;;;;;39.42;22.45;;;;;;;-8.23;96.69;101614.88;5102323;28;20266;-59
2022/12/18 00:12:57;;;;;;;40.60;22.60;;;;;;;-8.22;96.70;101611.44;5102821;28;20209;-60
2022/12/18 00:15:24;;;;;;;39.58;25.60;;;;;;;-8.34;96.58;101612.19;5101611;28;20254;-60
2022/12/18 00:17:51;;;;;;;46.58;23.45;;;;;;;-8.38;96.46;101607.84;5103059;28;20206;-60
2022/12/18 00:20:25;;;;;;;39.53;22.75;;;;;;;-8.44;96.31;101604.38;5102038;28;20251;-60
2022/12/18 00:22:51;;;;;;;46.38;22.25;;;;;;;-8.54;96.01;101600.81;5102635;28;20202;-60
2022/12/18 00:25:20;;;;;;;37.97;22.85;;;;;;;-8.64;95.89;101618.03;5102152;28;20211;-60
2022/12/18 00:27:46;;;;;;;39.88;22.10;;;;;;;-8.62;95.93;101621.50;5102237;28;20218;-60
2022/12/18 00:30:13;;;;;;;43.65;22.40;;;;;;;-8.62;95.84;101618.06;5102386;27;20190;-60
2022/12/18 00:32:40;;;;;;;40.15;22.80;;;;;;;-8.61;95.68;101631.03;5102223;28;20221;-60
2022/12/18 00:35:07;;;;;;;34.92;21.42;;;;;;;-8.55;95.59;101627.63;5101892;28;20209;-60
2022/12/18 00:37:34;;;;;;;40.75;22.35;;;;;;;-8.42;95.75;101623.41;5102167;28;20216;-61
2022/12/18 00:40:01;;;;;;;48.60;27.30;;;;;;;-8.34;95.78;101614.78;5102215;28;20197;-61
2022/12/18 00:45:13;;;;;;;35.92;20.77;;;;;;;-8.52;95.51;101623.31;5102353;28;20258;-61
2022/12/18 00:47:40;;;;;;;39.88;21.20;;;;;;;-8.73;94.92;101611.03;5102255;28;20201;-61
2022/12/18 00:50:08;;;;;;;35.05;20.70;;;;;;;-8.79;94.67;101610.09;5100779;28;20325;-60
2022/12/18 00:52:35;;;;;;;33.55;21.73;;;;;;;-8.78;94.45;101625.66;5102361;28;20594;-61
2022/12/18 00:55:02;;;;;;;37.10;20.80;;;;;;;-8.85;94.15;101621.28;5101877;28;20255;-60
2022/12/18 00:57:30;;;;;;;29.42;19.92;;;;;;;-8.88;93.55;101618.66;5100699;28;20616;-60
2022/12/18 00:59:57;;;;;;;40.03;22.77;;;;;;;-8.86;93.44;101609.16;5102618;28;20274;-60
2022/12/18 01:02:24;;;;;;;34.20;21.45;;;;;;;-8.88;93.04;101603.09;5101271;28;20253;-60
2022/12/18 01:04:50;;;;;;;36.40;22.08;;;;;;;-8.91;92.83;101609.09;5102115;28;20228;-60
2022/12/18 01:07:17;;;;;;;36.63;21.50;;;;;;;-8.90;92.65;101603.09;5100547;28;20298;-61
2022/12/18 01:09:44;;;;;;;35.55;20.65;;;;;;;-8.82;92.66;101612.66;5102150;28;20198;-60
2022/12/18 01:12:10;;;;;;;40.03;21.02;;;;;;;-8.84;92.65;101610.03;5100466;28;20276;-60
2022/12/18 01:14:38;;;;;;;38.97;21.83;;;;;;;-8.85;92.72;101610.03;5102411;28;20237;-60
2022/12/18 01:17:05;;;;;;;47.22;23.90;;;;;;;-8.92;92.67;101614.31;5100938;28;20229;-60
2022/12/18 01:19:32;;;;;;;43.90;22.25;;;;;;;-8.79;93.47;101608.38;5102041;28;20186;-61
2022/12/18 01:22:00;;;;;;;36.92;21.52;;;;;;;-8.84;93.42;101615.22;5100774;28;20256;-61
2022/12/18 01:24:26;;;;;;;33.50;21.15;;;;;;;-8.95;93.35;101606.50;5102210;28;20193;-61
2022/12/18 01:26:53;;;;;;;36.63;20.95;;;;;;;-9.07;92.92;101601.19;5100475;28;20500;-61
2022/12/18 01:29:20;;;;;;;39.50;22.75;;;;;;;-9.08;93.03;101595.09;5102157;28;20222;-61
2022/12/18 01:31:48;;;;;;;45.05;22.05;;;;;;;-9.14;92.92;101597.66;5100710;28;20231;-61
2022/12/18 01:34:15;;;;;;;38.65;22.63;;;;;;;-9.18;92.66;101593.25;5102203;28;20197;-60
2022/12/18 01:36:42;;;;;;;40.60;20.00;;;;;;;-9.17;92.83;101602.78;5100494;28;20240;-60
2022/12/18 01:39:11;;;;;;;38.08;21.23;;;;;;;-9.22;92.67;101605.31;5088828;28;20244;-60
2022/12/18 01:44:58;;;;;;;49.35;23.92;;;;;;;-9.33;91.75;101606.94;5082036;28;20190;-60
2022/12/18 01:47:31;;;;;;;39.30;22.83;;;;;;;-9.33;91.43;101617.28;5080563;28;20261;-60
2022/12/18 01:49:59;;;;;;;38.10;20.50;;;;;;;-9.44;91.34;101622.34;5080816;28;20194;-60
2022/12/18 01:52:27;;;;;;;39.58;22.20;;;;;;;-9.41;91.74;101629.25;5080386;28;20261;-60
2022/12/18 01:54:54;;;;;;;42.13;22.35;;;;;;;-9.38;91.65;101616.34;5081118;28;20223;-59
2022/12/18 01:57:20;;;;;;;41.30;23.42;;;;;;;-9.39;91.54;101612.91;5079928;28;20253;-59
2022/12/18 01:59:51;;;;;;;31.35;21.80;;;;;;;-9.37;91.32;101610.31;5081654;28;20266;-59
2022/12/18 02:02:18;;;;;;;36.38;22.75;;;;;;;-9.39;91.30;101606.84;5080746;28;20234;-59
2022/12/18 02:04:46;;;;;;;36.65;21.52;;;;;;;-9.39;91.55;101615.50;5081139;28;20187;-60
2022/12/18 02:07:18;;;;;;;39.63;22.20;;;;;;;-9.37;91.60;101615.50;5080368;28;20733;-59
2022/12/18 02:09:47;;;;;;;34.80;20.90;;;;;;;-9.47;91.17;101619.69;5082155;28;20190;-59
2022/12/18 02:12:18;;;;;;;37.90;22.02;;;;;;;-9.57;90.68;101612.66;5079845;28;20245;-59
2022/12/18 02:14:50;;;;;;;36.67;22.55;;;;;;;-9.52;90.73;101613.59;5081375;28;20236;-60
2022/12/18 02:17:19;;;;;;;35.45;21.75;;;;;;;-9.52;90.97;101618.78;5071269;28;20245;-60
2022/12/18 02:19:58;;;;;;;38.67;20.88;;;;;;;-9.50;90.79;101615.34;5068086;28;20330;-59
2022/12/18 02:22:29;;;;;;;38.20;21.83;;;;;;;-9.53;90.67;101623.09;5083706;28;20237;-60
2022/12/18 02:25:03;;;;;;;41.28;19.30;;;;;;;-9.56;90.28;101619.59;5084728;28;20261;-59
2022/12/18 02:27:33;;;;;;;29.23;19.88;;;;;;;-9.57;90.05;101620.44;5083228;28;20240;-59
2022/12/18 02:30:02;;;;;;;37.00;22.30;;;;;;;-9.63;89.90;101625.50;5084885;28;20226;-59
2022/12/18 02:32:32;;;;;;;31.73;18.73;;;;;;;-9.67;89.95;101617.72;5084151;28;20309;-59
2022/12/18 02:34:59;;;;;;;35.30;19.08;;;;;;;-9.66;90.01;101616.00;5084542;28;20233;-60
2022/12/18 02:37:27;;;;;;;40.20;19.25;;;;;;;-9.64;90.21;101605.66;5083066;28;20241;-59
2022/12/18 02:39:56;;;;;;;38.10;19.50;;;;;;;-9.43;91.26;101605.06;5103933;28;20295;-59
2022/12/18 02:42:23;;;;;;;35.58;20.45;;;;;;;-9.43;90.96;101605.06;5103247;28;20229;-59
2022/12/18 02:44:52;;;;;;;31.95;19.17;;;;;;;-9.57;90.70;101599.72;5104970;28;20212;-59
2022/12/18 02:47:22;;;;;;;31.02;17.98;;;;;;;-9.62;90.38;101593.63;5103701;28;20241;-59
2022/12/18 02:49:55;;;;;;;31.98;19.13;;;;;;;-9.64;90.32;101596.19;5101735;28;20616;-59
2022/12/18 02:52:27;;;;;;;34.75;19.50;;;;;;;-9.73;90.41;101598.66;5103999;28;20229;-60
2022/12/18 02:55:01;;;;;;;31.90;17.52;;;;;;;-9.76;90.37;101599.47;5104841;28;20233;-59
2022/12/18 02:57:35;;;;;;;30.27;18.38;;;;;;;-9.75;90.14;101602.94;5103231;28;20265;-59
2022/12/18 03:00:07;;;;;;;26.55;16.92;;;;;;;-9.71;90.30;101604.72;5083883;28;20224;-59
2022/12/18 03:02:40;;;;;;;28.90;17.80;;;;;;;-9.56;90.71;101611.81;5104099;28;20476;-59
2022/12/18 03:05:12;;;;;;;26.95;17.55;;;;;;;-9.53;90.95;101604.97;5103810;28;20236;-59
2022/12/18 03:07:43;;;;;;;31.02;17.92;;;;;;;-9.64;90.52;101610.84;5103730;28;20208;-59
2022/12/18 03:10:13;;;;;;;28.13;16.42;;;;;;;-9.69;90.07;101616.81;5102820;28;20550;-59
2022/12/18 03:12:44;;;;;;;31.30;17.33;;;;;;;-9.70;89.77;101624.59;5103638;28;20230;-59
2022/12/18 03:15:15;;;;;;;30.40;18.75;;;;;;;-9.74;89.58;101622.78;5100109;28;20218;-59
2022/12/18 03:17:46;;;;;;;43.78;21.08;;;;;;;-9.83;90.21;101620.94;5103830;28;20209;-59
2022/12/18 03:20:16;;;;;;;32.80;18.85;;;;;;;-9.78;90.81;101605.50;5073761;28;20197;-59
2022/12/18 03:22:44;;;;;;;32.08;18.58;;;;;;;-9.84;90.27;101606.28;5104329;28;20201;-59
2022/12/18 03:25:12;;;;;;;35.47;19.55;;;;;;;-9.92;89.78;101607.88;5103259;28;20665;-59
2022/12/18 03:27:43;;;;;;;31.05;17.80;;;;;;;-9.92;89.47;101608.75;5103365;28;20202;-59
2022/12/18 03:30:13;;;;;;;31.88;18.23;;;;;;;-9.93;89.32;101614.78;5102560;28;20193;-59
2022/12/18 03:32:43;;;;;;;27.90;17.17;;;;;;;-9.94;89.01;101617.34;5104065;28;20189;-59
2022/12/18 03:35:11;;;;;;;29.27;18.08;;;;;;;-10.05;88.59;101622.34;5102548;28;20225;-59
2022/12/18 03:37:38;;;;;;;28.10;17.70;;;;;;;-10.06;88.36;101618.03;5102781;28;20233;-60
2022/12/18 03:40:06;;;;;;;30.83;18.42;;;;;;;-10.05;88.33;101610.28;5103925;28;20206;-59
2022/12/18 03:42:38;;;;;;;27.88;16.65;;;;;;;-10.06;88.57;101628.38;5102687;28;20226;-61
2022/12/18 03:45:10;;;;;;;28.08;16.00;;;;;;;-10.05;88.86;101624.91;5103297;28;20237;-61
2022/12/18 03:47:42;;;;;;;27.67;16.70;;;;;;;-10.02;88.86;101626.69;5102833;28;20229;-61
2022/12/18 03:50:13;;;;;;;25.10;15.70;;;;;;;-10.03;88.88;101628.41;5102236;28;20221;-61
2022/12/18 03:52:43;;;;;;;28.48;19.40;;;;;;;-10.01;88.97;101631.00;5103252;28;20233;-61
2022/12/18 03:55:10;;;;;;;33.45;16.98;;;;;;;-9.95;89.17;101626.78;5102969;28;20257;-61
2022/12/18 03:57:38;;;;;;;25.70;14.95;;;;;;;-9.87;89.33;101625.19;5102110;28;20262;-62
2022/12/18 04:00:08;;;;;;;26.30;17.75;;;;;;;-9.73;89.62;101619.34;5103364;28;20250;-62
2022/12/18 04:02:36;;;;;;;24.05;15.63;;;;;;;-9.58;89.90;101597.97;5102598;28;20236;-63
2022/12/18 04:05:06;;;;;;;24.92;15.55;;;;;;;-9.57;90.61;101595.41;5103498;28;20208;-62
2022/12/18 04:07:34;;;;;;;22.77;15.40;;;;;;;-9.76;90.50;101598.59;5101999;28;20217;-62
2022/12/18 04:10:02;;;;;;;28.00;15.75;;;;;;;-9.99;90.42;101596.56;5075819;28;20228;-62
2022/12/18 04:12:30;;;;;;;23.27;15.32;;;;;;;-10.06;90.03;101610.25;5101783;28;20251;-62
2022/12/18 04:14:57;;;;;;;37.88;16.83;;;;;;;-10.17;89.44;101624.72;5103353;28;20225;-63
2022/12/18 04:17:23;;;;;;;25.83;15.65;;;;;;;-10.16;89.24;101610.97;5101358;28;20226;-62
2022/12/18 04:19:50;;;;;;;29.92;15.15;;;;;;;-10.10;88.98;101609.34;5102955;28;20194;-62
2022/12/18 04:22:19;;;;;;;27.20;17.23;;;;;;;-10.06;88.47;101615.44;5101953;28;20233;-62
2022/12/18 04:24:46;;;;;;;29.00;15.70;;;;;;;-10.11;88.69;101622.25;5103020;28;20232;-61
2022/12/18 04:27:12;;;;;;;32.83;17.50;;;;;;;-9.82;90.48;101612.34;5100841;28;20230;-61
2022/12/18 04:29:39;;;;;;;31.52;13.48;;;;;;;-9.75;91.07;101621.06;5103582;28;20205;-62
2022/12/18 04:32:06;;;;;;;25.83;15.25;;;;;;;-9.82;91.18;101625.28;5102043;28;20272;-62
2022/12/18 04:34:33;;;;;;;22.85;14.85;;;;;;;-9.87;91.00;101627.78;5102931;28;20201;-62
2022/12/18 04:36:59;;;;;;;26.73;14.93;;;;;;;-9.73;91.59;101627.97;5101566;28;20252;-62
2022/12/18 04:39:27;;;;;;;25.50;15.63;;;;;;;-9.40;92.94;101623.25;5102491;28;20233;-61
2022/12/18 04:41:54;;;;;;;25.08;15.40;;;;;;;-9.52;92.57;101624.81;5100598;28;20235;-62
2022/12/18 04:44:21;;;;;;;25.85;15.20;;;;;;;-9.68;92.16;101631.50;5102688;28;20197;-62
2022/12/18 04:46:47;;;;;;;22.92;13.93;;;;;;;-9.75;91.69;101641.75;5101410;28;20263;-61
2022/12/18 04:49:14;;;;;;;27.05;14.90;;;;;;;-9.84;91.17;101642.50;5101545;28;20236;-62
2022/12/18 04:51:40;;;;;;;28.25;15.40;;;;;;;-9.65;92.06;101622.94;5101262;28;20260;-61
2022/12/18 04:54:07;;;;;;;21.92;13.57;;;;;;;-9.63;92.24;101622.91;5102028;28;20237;-61
2022/12/18 04:56:35;;;;;;;22.05;14.18;;;;;;;-9.58;92.47;101629.03;5100719;28;20925;-60
2022/12/18 04:59:02;;;;;;;22.30;14.15;;;;;;;-9.71;92.10;101631.47;5102534;28;20190;-61
2022/12/18 05:01:28;;;;;;;25.15;14.63;;;;;;;-9.83;91.57;101635.59;5101245;28;20263;-61
2022/12/18 05:03:55;;;;;;;22.67;14.32;;;;;;;-9.87;91.05;101622.63;5101983;28;20198;-60
2022/12/18 05:06:22;;;;;;;22.90;14.48;;;;;;;-9.94;90.54;101625.97;5101373;28;20272;-61
2022/12/18 05:08:48;;;;;;;24.65;14.95;;;;;;;-9.93;90.30;101622.53;5102363;28;20193;-60
2022/12/18 05:11:16;;;;;;;25.98;13.55;;;;;;;-9.84;90.70;101626.97;5100517;28;20244;-61
2022/12/18 05:13:45;;;;;;;25.23;15.23;;;;;;;-9.82;90.72;101614.94;5101942;28;20307;-61
2022/12/18 05:16:12;;;;;;;23.80;14.80;;;;;;;-9.97;90.16;101610.38;5100766;28;20241;-61
2022/12/18 05:18:38;;;;;;;24.52;16.00;;;;;;;-10.05;89.56;101611.97;5101774;28;20220;-61
2022/12/18 05:21:06;;;;;;;21.50;14.57;;;;;;;-10.02;89.32;101600.84;5100864;28;20237;-61
2022/12/18 05:23:32;;;;;;;24.50;17.55;;;;;;;-10.11;88.87;101594.66;5101684;28;20225;-60
2022/12/18 05:26:01;;;;;;;27.67;16.15;;;;;;;-10.18;88.39;101592.84;5101324;28;20256;-61
2022/12/18 05:28:30;;;;;;;26.58;17.20;;;;;;;-10.20;87.89;101591.94;5100844;28;20268;-61
2022/12/18 05:31:00;;;;;;;20.45;14.20;;;;;;;-10.23;87.57;101594.47;5101537;28;20626;-60
2022/12/18 05:33:30;;;;;;;28.38;15.23;;;;;;;-10.18;87.65;101602.31;5101511;28;20201;-61
2022/12/18 05:35:58;;;;;;;27.90;15.65;;;;;;;-10.21;87.71;101613.47;5101087;28;20271;-60
2022/12/18 05:38:26;;;;;;;29.65;16.83;;;;;;;-10.20;87.61;101609.19;5100929;28;20257;-61
2022/12/18 05:40:54;;;;;;;21.80;13.73;;;;;;;-10.16;87.99;101605.78;5101387;28;20264;-61
2022/12/18 05:43:22;;;;;;;24.48;14.48;;;;;;;-10.13;88.75;101611.88;5100978;28;20197;-60
2022/12/18 05:45:49;;;;;;;23.02;14.48;;;;;;;-10.06;89.61;101599.91;5101602;28;20213;-61
2022/12/18 05:48:18;;;;;;;22.88;13.15;;;;;;;-10.01;90.27;101606.03;5100673;28;20212;-60
2022/12/18 05:50:46;;;;;;;23.33;12.98;;;;;;;-8.62;95.79;101611.13;5101326;28;20233;-60
2022/12/18 05:53:13;;;;;;;18.88;13.20;;;;;;;-8.73;95.80;101605.84;5102834;28;20620;-60
2022/12/18 05:55:41;;;;;;;20.50;13.27;;;;;;;-9.04;95.27;101599.50;5105248;28;20681;-61
2022/12/18 05:58:09;;;;;;;23.85;13.73;;;;;;;-9.28;94.79;101595.75;5104410;28;20241;-61
2022/12/18 06:00:39;;;;;;;25.60;14.73;;;;;;;-9.50;94.25;101597.22;5105195;28;20228;-60
2022/12/18 06:03:06;;;;;;;21.02;14.25;;;;;;;-9.62;93.83;101607.41;5105583;28;20197;-62
2022/12/18 06:05:37;;;;;;;21.88;13.73;;;;;;;-9.80;93.37;101610.63;5105375;28;20245;-62
2022/12/18 06:08:04;;;;;;;28.13;15.35;;;;;;;-9.84;93.10;101614.03;5097413;28;20300;-61
2022/12/18 06:10:30;;;;;;;21.85;13.82;;;;;;;-9.72;93.43;101613.31;5105054;28;20240;-61
2022/12/18 06:12:57;;;;;;;23.95;15.98;;;;;;;-9.57;93.93;101617.84;5104675;28;20674;-62
2022/12/18 06:15:24;;;;;;;22.63;13.18;;;;;;;-9.48;94.19;101616.25;5104879;28;20715;-62
2022/12/18 06:17:51;;;;;;;20.75;14.10;;;;;;;-9.52;94.40;101617.03;5105224;28;20358;-62
2022/12/18 06:20:18;;;;;;;20.20;14.25;;;;;;;-9.68;93.73;101625.47;5086310;28;20618;-62
2022/12/18 06:22:47;;;;;;;23.90;13.98;;;;;;;-9.78;93.12;101637.41;5105654;28;20231;-61
2022/12/18 06:25:14;;;;;;;22.90;13.65;;;;;;;-9.89;91.99;101628.63;5104793;28;20202;-62
2022/12/18 06:27:41;;;;;;;25.13;14.50;;;;;;;-9.99;91.19;101643.13;5105066;28;20266;-61
2022/12/18 06:30:09;;;;;;;26.08;13.90;;;;;;;-10.04;90.54;101645.63;5103329;28;20209;-62
2022/12/18 06:32:35;;;;;;;21.63;13.35;;;;;;;-10.03;90.29;101643.94;5105820;28;20235;-61
2022/12/18 06:35:03;;;;;;;25.08;14.40;;;;;;;-10.06;90.14;101646.47;5105120;28;20194;-60
2022/12/18 06:37:32;;;;;;;24.95;14.30;;;;;;;-10.00;90.46;101654.31;5103960;28;20236;-60
2022/12/18 06:40:00;;;;;;;23.58;14.27;;;;;;;-9.92;90.70;101644.97;5105215;28;20276;-62
2022/12/18 06:42:27;;;;;;;24.98;15.50;;;;;;;-9.80;90.63;101648.59;5103952;28;20746;-62
2022/12/18 06:44:54;;;;;;;24.50;14.32;;;;;;;-9.82;90.57;101645.09;5105007;28;20212;-62
2022/12/18 06:47:21;;;;;;;27.15;14.57;;;;;;;-10.01;90.32;101650.00;5104548;28;20229;-61
2022/12/18 06:49:48;;;;;;;23.23;15.05;;;;;;;-10.07;90.46;101642.13;5095231;28;20193;-63
2022/12/18 06:52:17;;;;;;;29.73;15.48;;;;;;;-10.11;90.78;101651.56;5087144;28;20222;-62
2022/12/18 06:54:44;;;;;;;29.35;17.13;;;;;;;-10.04;91.91;101645.63;5085565;28;20724;-61
2022/12/18 06:57:12;;;;;;;40.75;20.23;;;;;;;-9.81;93.03;101647.69;5087856;28;20361;-63
2022/12/18 06:59:39;;;;;;;27.88;17.30;;;;;;;-9.73;93.81;101646.09;5085957;28;20278;-64
2022/12/18 07:02:06;;;;;;;23.00;14.02;;;;;;;-9.66;93.99;101653.09;5100932;28;20232;-65
2022/12/18 07:04:33;;;;;;;27.58;14.85;;;;;;;-9.85;93.44;101653.69;5097346;28;20229;-70
2022/12/18 07:06:59;;;;;;;27.50;14.82;;;;;;;-9.99;92.45;101657.78;5089395;28;20230;-66
2022/12/18 07:09:26;;;;;;;24.50;15.57;;;;;;;-10.05;91.65;101664.59;5104274;28;20209;-67
2022/12/18 07:11:53;;;;;;;24.73;15.80;;;;;;;-10.10;90.93;101662.78;5103258;28;20226;-67
2022/12/18 07:14:21;;;;;;;30.83;16.73;;;;;;;-10.10;90.51;101671.44;5104413;28;20246;-67
2022/12/18 07:16:48;;;;;;;32.88;19.83;;;;;;;-10.02;90.46;101665.50;5103122;28;20272;-67
2022/12/18 07:19:15;;;;;;;153.60;64.68;;;;;;;-9.86;90.73;101662.28;5103648;28;20228;-66
2022/12/18 07:21:41;;;;;;;34.13;17.77;;;;;;;-9.83;90.88;101658.88;5098872;28;20260;-67
2022/12/18 07:24:08;;;;;;;109.75;52.00;;;;;;;-9.74;91.06;101662.47;5104144;28;20634;-67
2022/12/18 07:26:35;;;;;;;26.90;15.95;;;;;;;-9.68;91.44;101659.97;5097436;28;20226;-67
2022/12/18 07:29:03;;;;;;;23.88;15.90;;;;;;;-9.57;91.73;101654.94;5095639;28;20202;-67
2022/12/18 07:31:31;;;;;;;32.38;16.05;;;;;;;-9.48;92.18;101644.72;5103548;28;20256;-67
2022/12/18 07:33:58;;;;;;;23.83;14.02;;;;;;;-9.42;92.29;101640.47;5100271;28;20251;-67
2022/12/18 07:36:25;;;;;;;25.27;16.70;;;;;;;-9.37;92.63;101644.88;5102832;28;20261;-67
2022/12/18 07:38:52;;;;;;;26.92;16.05;;;;;;;-9.27;92.93;101645.81;5103159;28;20241;-67
2022/12/18 07:41:19;;;;;;;22.90;13.90;;;;;;;-9.15;92.99;101640.81;5101469;28;20222;-67
2022/12/18 07:43:46;;;;;;;29.20;16.60;;;;;;;-9.21;92.92;101645.06;5103297;28;20210;-67
2022/12/18 07:46:14;;;;;;;21.92;14.57;;;;;;;-9.28;92.57;101654.47;5103377;28;20263;-67
2022/12/18 07:48:43;;;;;;;24.13;13.95;;;;;;;-9.24;92.14;101652.78;5102370;28;20347;-67
2022/12/18 07:51:10;;;;;;;29.75;16.85;;;;;;;-9.26;91.86;101644.13;5100890;28;20702;-69
2022/12/18 07:53:37;;;;;;;28.55;14.80;;;;;;;-9.14;91.93;101649.47;5103114;28;20230;-67
2022/12/18 07:56:06;;;;;;;27.92;14.95;;;;;;;-9.01;92.08;101645.28;5076808;28;20225;-67
2022/12/18 07:58:33;;;;;;;36.70;24.63;;;;;;;-8.59;92.66;101652.66;5070188;28;20706;-67
2022/12/18 08:01:04;;;;;;;28.48;17.65;;;;;;;-8.38;92.89;101657.13;5075385;28;20248;-67
2022/12/18 08:03:31;;;;;;;23.40;14.55;;;;;;;-8.13;93.07;101657.34;5083795;28;20202;-67
2022/12/18 08:06:01;;;;;;;29.58;15.05;;;;;;;-7.77;93.11;101656.72;5097658;28;20259;-67
2022/12/18 08:08:28;;;;;;;22.40;14.50;;;;;;;-7.58;92.78;101646.47;5083287;28;20245;-66
2022/12/18 08:10:55;;;;;;;26.48;17.77;;;;;;;-7.32;92.11;101644.00;5084069;28;20253;-65
2022/12/18 08:13:22;;;;;;;27.63;15.63;;;;;;;-7.20;91.45;101643.19;5080730;28;20295;-67
2022/12/18 08:15:58;;;;;;;32.25;19.67;;;;;;;-7.46;90.19;101640.47;5083585;28;20253;-67
2022/12/18 08:18:25;;;;;;;30.35;17.35;;;;;;;-7.31;89.92;101635.31;5080212;28;20225;-66
2022/12/18 08:20:52;;;;;;;35.05;20.58;;;;;;;-6.95;88.76;101632.88;5082995;28;20238;-67
2022/12/18 08:23:20;;;;;;;45.92;22.90;;;;;;;-6.94;87.91;101632.88;5083215;28;20264;-67
2022/12/18 08:25:46;;;;;;;34.33;23.55;;;;;;;-7.05;87.35;101626.75;5081877;28;20230;-65
2022/12/18 08:28:13;;;;;;;31.27;19.27;;;;;;;-7.16;87.24;101613.75;5081355;28;20233;-67
2022/12/18 08:30:40;;;;;;;27.67;15.65;;;;;;;-7.03;87.64;101618.13;5082112;28;20234;-67
2022/12/18 08:33:07;;;;;;;28.67;17.30;;;;;;;-6.58;87.90;101618.19;5082672;28;20202;-67
2022/12/18 08:35:36;;;;;;;32.78;20.35;;;;;;;-6.31;86.99;101611.28;5083494;28;20775;-67
2022/12/18 08:38:03;;;;;;;44.10;29.67;;;;;;;-5.78;85.51;101610.34;5081651;28;20242;-67
2022/12/18 08:40:31;;;;;;;35.80;22.23;;;;;;;-6.05;84.40;101616.47;5081864;28;20230;-67
2022/12/18 08:45:42;;;;;;;54.13;36.08;;;;;;;-5.48;85.20;101608.50;5079896;28;20287;-67
2022/12/18 08:48:09;;;;;;;68.45;43.03;;;;;;;-5.49;85.11;101609.38;5081784;28;20233;-70
2022/12/18 08:50:36;;;;;;;62.70;38.40;;;;;;;-5.09;85.06;101616.16;5082589;28;20237;-69
2022/12/18 08:53:02;;;;;;;63.85;40.80;;;;;;;-5.23;83.83;101611.88;5082131;28;20206;-69
2022/12/18 08:55:31;;;;;;;65.75;39.30;;;;;;;-5.09;84.21;101621.38;5081508;28;20230;-70
2022/12/18 08:57:57;;;;;;;76.78;51.10;;;;;;;-4.63;84.10;101621.13;5095012;28;20236;-70
2022/12/18 09:00:24;;;;;;;62.15;44.60;;;;;;;-3.42;81.71;101614.78;5083631;28;20237;-69
2022/12/18 09:02:51;;;;;;;80.78;50.80;;;;;;;-3.06;77.35;101611.72;5081958;28;20225;-70
2022/12/18 09:05:18;;;;;;;56.85;39.70;;;;;;;-2.77;75.43;101611.31;5084689;28;21017;-70
2022/12/18 09:07:44;;;;;;;49.78;32.15;;;;;;;-1.80;73.22;101609.75;5080334;28;20206;-69
2022/12/18 09:10:11;;;;;;;50.40;34.50;;;;;;;-2.33;71.53;101616.78;5078499;28;20213;-70
2022/12/18 09:12:40;;;;;;;54.78;40.10;;;;;;;-2.56;74.87;101610.13;5080340;28;20467;-70
2022/12/18 09:15:07;;;;;;;41.72;30.52;;;;;;;-3.29;75.39;101610.25;5090686;28;20209;-70
2022/12/18 09:17:34;;;;;;;37.40;26.30;;;;;;;-3.42;76.22;101614.78;5083148;28;20226;-70
2022/12/18 09:20:01;;;;;;;43.40;26.35;;;;;;;-3.79;77.41;101606.47;5081511;28;20445;-70
2022/12/18 09:22:27;;;;;;;35.10;25.80;;;;;;;-3.63;78.81;101602.84;5086699;28;20268;-70
2022/12/18 09:24:54;;;;;;;38.47;27.35;;;;;;;-3.53;78.83;101607.94;5087842;28;20294;-69
2022/12/18 09:27:21;;;;;;;34.40;25.40;;;;;;;-3.34;78.92;101617.31;5080794;28;20251;-63
2022/12/18 09:29:49;;;;;;;38.92;26.38;;;;;;;-2.50;78.23;101622.25;5081847;28;20202;-63
2022/12/18 09:32:16;;;;;;;44.05;27.95;;;;;;;-2.41;75.18;101622.16;5086891;28;20234;-62
2022/12/18 09:34:43;;;;;;;39.50;27.10;;;;;;;-2.27;74.06;101617.53;5087872;28;20570;-62
2022/12/18 09:37:10;;;;;;;37.42;23.95;;;;;;;-3.31;75.90;101608.56;5087499;28;20303;-62
2022/12/18 09:39:36;;;;;;;31.25;21.38;;;;;;;-3.57;78.19;101608.88;5098451;28;20237;-63
2022/12/18 09:42:04;;;;;;;26.27;19.42;;;;;;;-3.71;79.29;101609.03;5086129;28;20706;-63
2022/12/18 09:44:32;;;;;;;25.17;18.23;;;;;;;-3.27;79.34;101603.25;5085549;28;20198;-63
2022/12/18 09:47:16;;;;;;;25.60;19.27;;;;;;;-3.11;77.72;101619.63;5075198;28;20230;-63
2022/12/18 09:49:46;;;;;;;25.08;17.50;;;;;;;-3.23;78.18;101619.78;5097903;28;20819;-62
2022/12/18 09:52:17;;;;;;;25.17;16.98;;;;;;;-2.61;77.15;101616.34;5089375;28;20272;-62
2022/12/18 09:54:47;;;;;;;22.20;15.43;;;;;;;-1.91;74.73;101623.06;5090933;28;20202;-62
2022/12/18 09:57:16;;;;;;;28.45;16.77;;;;;;;-0.84;69.70;101606.03;5088655;28;20237;-62
2022/12/18 09:59:43;;;;;;;22.63;15.90;;;;;;;-0.34;68.14;101612.81;5086390;28;20212;-66
2022/12/18 10:02:17;;;;;;;20.07;14.63;;;;;;;-0.19;65.97;101601.91;5081879;28;20540;-64
2022/12/18 10:04:44;;;;;;;19.50;13.90;;;;;;;0.22;66.33;101593.84;5081748;28;20460;-65
2022/12/18 10:07:16;;;;;;;18.60;13.47;;;;;;;0.49;66.16;101603.59;5078971;28;20538;-66
2022/12/18 10:09:47;;;;;;;20.20;13.77;;;;;;;-0.09;66.38;101602.53;5084443;28;20440;-65
2022/12/18 10:12:20;;;;;;;21.13;13.50;;;;;;;0.05;63.74;101605.66;5083773;28;20502;-65
2022/12/18 10:14:52;;;;;;;20.43;12.70;;;;;;;0.55;62.63;101611.31;5085213;28;20466;-66
2022/12/18 10:17:26;;;;;;;17.97;11.90;;;;;;;0.56;64.16;101607.78;5083902;28;20499;-67
2022/12/18 10:19:56;;;;;;;19.03;13.03;;;;;;;0.45;65.47;101606.34;5084474;28;20466;-63
2022/12/18 10:22:32;;;;;;;15.37;11.37;;;;;;;2.32;59.97;101583.75;5081552;28;20476;-63
2022/12/18 10:25:05;;;;;;;15.37;10.33;;;;;;;3.06;56.69;101569.63;5083006;28;20444;-64
2022/12/18 10:27:32;;;;;;;19.43;10.77;;;;;;;3.24;54.77;101555.66;5081772;28;20453;-63
2022/12/18 10:29:59;;;;;;;17.67;11.97;;;;;;;2.73;57.26;101543.56;5082048;28;20436;-63
2022/12/18 10:32:30;;;;;;;20.17;15.13;;;;;;;2.69;57.20;101534.91;5078628;28;20483;-64
2022/12/18 10:34:58;;;;;;;19.57;12.20;;;;;;;2.13;58.90;101533.44;5083358;28;20452;-64
2022/12/18 10:37:27;;;;;;;15.77;9.83;;;;;;;1.94;60.12;101537.63;5082296;28;20488;-63
2022/12/18 10:40:12;;;;;;;16.05;12.57;;;;;;;1.85;60.54;101523.00;5082197;28;20445;-63
2022/12/18 10:42:40;;;;;;;14.30;10.53;;;;;;;2.27;60.33;101511.81;5082758;28;20531;-61
2022/12/18 10:45:11;;;;;;;15.20;12.48;;;;;;;1.90;60.16;101514.94;5076860;28;20438;-62
2022/12/18 10:47:44;;;;;;;12.23;9.13;;;;;;;2.14;59.74;101518.47;5072471;28;20253;-62
2022/12/18 10:50:20;;;;;;;14.67;10.63;;;;;;;2.01;60.53;101528.59;5079082;28;20826;-62
2022/12/18 10:52:55;;;;;;;20.57;14.93;;;;;;;1.99;60.03;101530.44;5075156;28;20444;-63
2022/12/18 10:55:23;;;;;;;15.13;9.70;;;;;;;2.00;60.29;101519.81;5082163;28;20444;-62
2022/12/18 10:57:51;;;;;;;14.40;10.17;;;;;;;1.28;61.81;101523.09;5077978;28;20504;-63
2022/12/18 11:00:27;;;;;;;12.47;8.50;;;;;;;0.74;63.48;101524.78;5079805;28;20472;-62
2022/12/18 11:02:56;;;;;;;15.30;9.60;;;;;;;0.90;65.29;101509.41;5081841;28;20528;-63
2022/12/18 11:05:30;;;;;;;11.70;8.30;;;;;;;1.44;63.55;101502.41;5081036;28;20475;-63
2022/12/18 11:07:57;;;;;;;13.17;8.70;;;;;;;1.67;62.99;101491.09;5075155;28;20460;-62
2022/12/18 11:10:28;;;;;;;14.30;7.80;;;;;;;1.20;64.92;101482.13;5081021;28;20452;-62
2022/12/18 11:12:55;;;;;;;10.93;7.30;;;;;;;0.74;66.25;101484.44;5079322;28;20503;-63
2022/12/18 11:15:24;;;;;;;12.23;7.90;;;;;;;0.55;66.65;101478.88;5081467;28;20456;-62
2022/12/18 11:17:53;;;;;;;10.50;7.13;;;;;;;0.06;68.35;101475.06;5082306;28;21047;-62
2022/12/18 11:20:28;;;;;;;11.10;7.50;;;;;;;-0.26;69.60;101468.91;5080946;28;20455;-63
2022/12/18 11:22:57;;;;;;;14.30;7.97;;;;;;;-0.29;71.98;101464.63;5082502;28;20469;-63